sensor_id;sensor_type;location;lat;lon;timestamp;P1;durP1;ratioP1;P2;durP2;ratioP2
8574;SDS011;4325;42.520;27.448;2022-07-18T00:01:19;11.47;;;4.80;;
8574;SDS011;4325;42.520;27.448;2022-07-18T00:03:46;8.53;;;4.93;;
8574;SDS011;4325;42.520;27.448;2022-07-18T00:06:13;9.10;;;5.07;;
8574;SDS011;4325;42.520;27.448;2022-07-18T00:08:39;8.83;;;5.07;;
8574;SDS011;4325;42.520;27.448;2022-07-18T00:11:06;10.47;;;6.00;;
8574;SDS011;4325;42.520;27.448;2022-07-18T00:13:33;10.80;;;6.07;;
8574;SDS011;4325;42.520;27.448;2022-07-18T00:16:01;17.70;;;6.73;;
8574;SDS011;4325;42.520;27.448;2022-07-18T00:18:28;14.40;;;6.57;;
8574;SDS011;4325;42.520;27.448;2022-07-18T00:20:55;13.37;;;7.07;;
8574;SDS011;4325;42.520;27.448;2022-07-18T00:23:22;14.73;;;8.33;;
8574;SDS011;4325;42.520;27.448;2022-07-18T00:25:49;14.93;;;7.70;;
8574;SDS011;4325;42.520;27.448;2022-07-18T00:28:16;12.17;;;6.67;;
8574;SDS011;4325;42.520;27.448;2022-07-18T00:30:43;11.93;;;6.23;;
8574;SDS011;4325;42.520;27.448;2022-07-18T00:33:11;9.33;;;5.67;;
8574;SDS011;4325;42.520;27.448;2022-07-18T00:35:38;10.93;;;5.90;;
8574;SDS011;4325;42.520;27.448;2022-07-18T00:38:05;7.23;;;5.90;;
8574;SDS011;4325;42.520;27.448;2022-07-18T00:40:32;15.77;;;6.00;;
8574;SDS011;4325;42.520;27.448;2022-07-18T00:42:59;11.50;;;5.63;;
8574;SDS011;4325;42.520;27.448;2022-07-18T00:45:26;11.83;;;6.50;;
8574;SDS011;4325;42.520;27.448;2022-07-18T00:47:53;9.80;;;5.67;;
8574;SDS011;4325;42.520;27.448;2022-07-18T00:50:21;8.27;;;5.90;;
8574;SDS011;4325;42.520;27.448;2022-07-18T00:52:49;8.60;;;5.97;;
8574;SDS011;4325;42.520;27.448;2022-07-18T00:55:16;9.50;;;6.30;;
8574;SDS011;4325;42.520;27.448;2022-07-18T00:57:43;8.53;;;5.40;;
8574;SDS011;4325;42.520;27.448;2022-07-18T01:00:11;10.93;;;6.20;;
8574;SDS011;4325;42.520;27.448;2022-07-18T01:02:56;8.83;;;5.43;;
8574;SDS011;4325;42.520;27.448;2022-07-18T01:05:25;8.90;;;5.47;;
8574;SDS011;4325;42.520;27.448;2022-07-18T01:07:52;7.30;;;5.50;;
8574;SDS011;4325;42.520;27.448;2022-07-18T01:10:18;8.77;;;5.47;;
8574;SDS011;4325;42.520;27.448;2022-07-18T01:12:45;6.10;;;5.50;;
8574;SDS011;4325;42.520;27.448;2022-07-18T01:15:12;6.13;;;5.53;;
8574;SDS011;4325;42.520;27.448;2022-07-18T01:17:39;10.37;;;5.43;;
8574;SDS011;4325;42.520;27.448;2022-07-18T01:20:07;7.53;;;5.90;;
8574;SDS011;4325;42.520;27.448;2022-07-18T01:22:36;7.90;;;5.60;;
8574;SDS011;4325;42.520;27.448;2022-07-18T01:25:04;8.63;;;5.30;;
8574;SDS011;4325;42.520;27.448;2022-07-18T01:27:32;9.67;;;5.57;;
8574;SDS011;4325;42.520;27.448;2022-07-18T01:29:59;7.00;;;5.23;;
8574;SDS011;4325;42.520;27.448;2022-07-18T01:32:26;8.27;;;5.70;;
8574;SDS011;4325;42.520;27.448;2022-07-18T01:34:53;6.20;;;5.60;;
8574;SDS011;4325;42.520;27.448;2022-07-18T01:37:20;9.33;;;5.90;;
8574;SDS011;4325;42.520;27.448;2022-07-18T01:39:48;10.47;;;6.43;;
8574;SDS011;4325;42.520;27.448;2022-07-18T01:42:15;6.27;;;5.30;;
8574;SDS011;4325;42.520;27.448;2022-07-18T01:44:42;9.77;;;5.83;;
8574;SDS011;4325;42.520;27.448;2022-07-18T01:47:10;7.37;;;5.97;;
8574;SDS011;4325;42.520;27.448;2022-07-18T01:49:37;7.17;;;5.47;;
8574;SDS011;4325;42.520;27.448;2022-07-18T01:52:05;13.63;;;6.70;;
8574;SDS011;4325;42.520;27.448;2022-07-18T01:54:33;8.00;;;6.17;;
8574;SDS011;4325;42.520;27.448;2022-07-18T01:57:03;7.20;;;5.77;;
8574;SDS011;4325;42.520;27.448;2022-07-18T01:59:32;8.63;;;6.97;;
8574;SDS011;4325;42.520;27.448;2022-07-18T02:01:59;12.00;;;8.73;;
8574;SDS011;4325;42.520;27.448;2022-07-18T02:04:26;10.50;;;8.27;;
8574;SDS011;4325;42.520;27.448;2022-07-18T02:07:06;10.73;;;6.20;;
8574;SDS011;4325;42.520;27.448;2022-07-18T02:09:33;9.83;;;5.67;;
8574;SDS011;4325;42.520;27.448;2022-07-18T02:12:00;11.73;;;5.40;;
8574;SDS011;4325;42.520;27.448;2022-07-18T02:14:28;8.50;;;5.10;;
8574;SDS011;4325;42.520;27.448;2022-07-18T02:16:55;7.50;;;4.53;;
8574;SDS011;4325;42.520;27.448;2022-07-18T02:19:22;7.07;;;5.30;;
8574;SDS011;4325;42.520;27.448;2022-07-18T02:21:49;8.00;;;6.13;;
8574;SDS011;4325;42.520;27.448;2022-07-18T02:24:16;11.47;;;6.00;;
8574;SDS011;4325;42.520;27.448;2022-07-18T02:26:43;13.27;;;5.47;;
8574;SDS011;4325;42.520;27.448;2022-07-18T02:29:09;9.77;;;5.10;;
8574;SDS011;4325;42.520;27.448;2022-07-18T02:31:38;6.90;;;4.67;;
8574;SDS011;4325;42.520;27.448;2022-07-18T02:34:04;7.70;;;4.80;;
8574;SDS011;4325;42.520;27.448;2022-07-18T02:36:35;12.30;;;4.50;;
8574;SDS011;4325;42.520;27.448;2022-07-18T02:39:02;5.57;;;3.87;;
8574;SDS011;4325;42.520;27.448;2022-07-18T02:41:29;7.10;;;4.37;;
8574;SDS011;4325;42.520;27.448;2022-07-18T02:43:56;5.30;;;4.00;;
8574;SDS011;4325;42.520;27.448;2022-07-18T02:46:24;5.70;;;4.30;;
8574;SDS011;4325;42.520;27.448;2022-07-18T02:48:52;5.27;;;3.87;;
8574;SDS011;4325;42.520;27.448;2022-07-18T02:51:19;7.23;;;5.47;;
8574;SDS011;4325;42.520;27.448;2022-07-18T02:53:46;6.33;;;4.47;;
8574;SDS011;4325;42.520;27.448;2022-07-18T02:56:13;7.87;;;4.13;;
8574;SDS011;4325;42.520;27.448;2022-07-18T02:58:40;10.23;;;4.20;;
8574;SDS011;4325;42.520;27.448;2022-07-18T03:01:07;7.97;;;4.40;;
8574;SDS011;4325;42.520;27.448;2022-07-18T03:03:34;9.50;;;4.43;;
8574;SDS011;4325;42.520;27.448;2022-07-18T03:06:02;5.93;;;3.83;;
8574;SDS011;4325;42.520;27.448;2022-07-18T03:08:29;9.13;;;3.27;;
8574;SDS011;4325;42.520;27.448;2022-07-18T03:10:56;6.80;;;3.83;;
8574;SDS011;4325;42.520;27.448;2022-07-18T03:13:22;8.23;;;3.97;;
8574;SDS011;4325;42.520;27.448;2022-07-18T03:15:49;11.77;;;6.60;;
8574;SDS011;4325;42.520;27.448;2022-07-18T03:18:16;7.73;;;4.77;;
8574;SDS011;4325;42.520;27.448;2022-07-18T03:20:43;9.60;;;3.37;;
8574;SDS011;4325;42.520;27.448;2022-07-18T03:23:11;7.43;;;3.43;;
8574;SDS011;4325;42.520;27.448;2022-07-18T03:25:38;7.17;;;3.00;;
8574;SDS011;4325;42.520;27.448;2022-07-18T03:28:05;11.83;;;3.30;;
8574;SDS011;4325;42.520;27.448;2022-07-18T03:30:32;8.43;;;3.23;;
8574;SDS011;4325;42.520;27.448;2022-07-18T03:32:58;6.77;;;3.60;;
8574;SDS011;4325;42.520;27.448;2022-07-18T03:35:25;10.20;;;3.87;;
8574;SDS011;4325;42.520;27.448;2022-07-18T03:37:52;14.47;;;8.40;;
8574;SDS011;4325;42.520;27.448;2022-07-18T03:40:21;5.57;;;3.73;;
8574;SDS011;4325;42.520;27.448;2022-07-18T03:42:48;9.37;;;4.00;;
8574;SDS011;4325;42.520;27.448;2022-07-18T03:45:14;6.27;;;3.00;;
8574;SDS011;4325;42.520;27.448;2022-07-18T03:47:41;7.97;;;2.70;;
8574;SDS011;4325;42.520;27.448;2022-07-18T03:50:08;6.40;;;3.33;;
8574;SDS011;4325;42.520;27.448;2022-07-18T03:52:36;8.80;;;2.80;;
8574;SDS011;4325;42.520;27.448;2022-07-18T03:55:03;5.77;;;3.10;;
8574;SDS011;4325;42.520;27.448;2022-07-18T03:57:32;3.60;;;3.10;;
8574;SDS011;4325;42.520;27.448;2022-07-18T03:59:58;9.30;;;2.90;;
8574;SDS011;4325;42.520;27.448;2022-07-18T04:02:25;4.83;;;2.77;;
8574;SDS011;4325;42.520;27.448;2022-07-18T04:04:52;10.47;;;3.33;;
8574;SDS011;4325;42.520;27.448;2022-07-18T04:07:19;9.60;;;3.03;;
8574;SDS011;4325;42.520;27.448;2022-07-18T04:09:46;6.63;;;3.33;;
8574;SDS011;4325;42.520;27.448;2022-07-18T04:12:13;10.60;;;3.47;;
8574;SDS011;4325;42.520;27.448;2022-07-18T04:14:41;6.63;;;3.87;;
8574;SDS011;4325;42.520;27.448;2022-07-18T04:17:08;8.07;;;4.17;;
8574;SDS011;4325;42.520;27.448;2022-07-18T04:19:35;9.37;;;3.43;;
8574;SDS011;4325;42.520;27.448;2022-07-18T04:22:01;10.03;;;3.83;;
8574;SDS011;4325;42.520;27.448;2022-07-18T04:24:28;9.30;;;3.93;;
8574;SDS011;4325;42.520;27.448;2022-07-18T04:26:55;10.20;;;4.30;;
8574;SDS011;4325;42.520;27.448;2022-07-18T04:29:22;5.53;;;3.50;;
8574;SDS011;4325;42.520;27.448;2022-07-18T04:31:50;9.03;;;4.43;;
8574;SDS011;4325;42.520;27.448;2022-07-18T04:34:17;11.13;;;3.60;;
8574;SDS011;4325;42.520;27.448;2022-07-18T04:36:44;8.57;;;3.27;;
8574;SDS011;4325;42.520;27.448;2022-07-18T04:39:11;7.50;;;2.80;;
8574;SDS011;4325;42.520;27.448;2022-07-18T04:41:38;7.53;;;2.77;;
8574;SDS011;4325;42.520;27.448;2022-07-18T04:44:04;10.37;;;3.17;;
8574;SDS011;4325;42.520;27.448;2022-07-18T04:46:31;11.77;;;3.70;;
8574;SDS011;4325;42.520;27.448;2022-07-18T04:49:00;6.07;;;3.23;;
8574;SDS011;4325;42.520;27.448;2022-07-18T04:51:26;12.97;;;3.30;;
8574;SDS011;4325;42.520;27.448;2022-07-18T04:53:53;18.50;;;2.97;;
8574;SDS011;4325;42.520;27.448;2022-07-18T04:56:20;8.40;;;2.67;;
8574;SDS011;4325;42.520;27.448;2022-07-18T04:58:47;6.70;;;3.00;;
8574;SDS011;4325;42.520;27.448;2022-07-18T05:01:14;9.57;;;2.83;;
8574;SDS011;4325;42.520;27.448;2022-07-18T05:03:41;9.17;;;3.13;;
8574;SDS011;4325;42.520;27.448;2022-07-18T05:06:09;8.33;;;2.80;;
8574;SDS011;4325;42.520;27.448;2022-07-18T05:08:36;11.07;;;3.10;;
8574;SDS011;4325;42.520;27.448;2022-07-18T05:11:03;5.93;;;2.70;;
8574;SDS011;4325;42.520;27.448;2022-07-18T05:13:30;8.70;;;2.80;;
8574;SDS011;4325;42.520;27.448;2022-07-18T05:15:57;7.53;;;2.90;;
8574;SDS011;4325;42.520;27.448;2022-07-18T05:18:23;13.20;;;2.73;;
8574;SDS011;4325;42.520;27.448;2022-07-18T05:20:50;10.37;;;2.97;;
8574;SDS011;4325;42.520;27.448;2022-07-18T05:23:18;7.97;;;2.90;;
8574;SDS011;4325;42.520;27.448;2022-07-18T05:25:48;6.23;;;2.50;;
8574;SDS011;4325;42.520;27.448;2022-07-18T05:28:15;6.37;;;2.60;;
8574;SDS011;4325;42.520;27.448;2022-07-18T05:30:42;9.73;;;2.90;;
8574;SDS011;4325;42.520;27.448;2022-07-18T05:33:09;18.47;;;3.07;;
8574;SDS011;4325;42.520;27.448;2022-07-18T05:35:36;18.97;;;3.20;;
8574;SDS011;4325;42.520;27.448;2022-07-18T05:38:03;12.70;;;2.80;;
8574;SDS011;4325;42.520;27.448;2022-07-18T05:40:31;14.73;;;3.17;;
8574;SDS011;4325;42.520;27.448;2022-07-18T05:42:58;8.63;;;2.53;;
8574;SDS011;4325;42.520;27.448;2022-07-18T05:45:25;10.80;;;2.47;;
8574;SDS011;4325;42.520;27.448;2022-07-18T05:47:52;9.93;;;3.17;;
8574;SDS011;4325;42.520;27.448;2022-07-18T05:50:19;9.23;;;2.20;;
8574;SDS011;4325;42.520;27.448;2022-07-18T05:52:46;11.10;;;2.80;;
8574;SDS011;4325;42.520;27.448;2022-07-18T05:55:13;15.27;;;2.60;;
8574;SDS011;4325;42.520;27.448;2022-07-18T05:57:42;5.87;;;2.40;;
8574;SDS011;4325;42.520;27.448;2022-07-18T06:00:10;6.50;;;2.37;;
8574;SDS011;4325;42.520;27.448;2022-07-18T06:02:38;7.07;;;2.30;;
8574;SDS011;4325;42.520;27.448;2022-07-18T06:05:05;10.57;;;2.43;;
8574;SDS011;4325;42.520;27.448;2022-07-18T06:07:33;9.90;;;3.20;;
8574;SDS011;4325;42.520;27.448;2022-07-18T06:10:00;12.10;;;2.57;;
8574;SDS011;4325;42.520;27.448;2022-07-18T06:12:28;15.23;;;2.93;;
8574;SDS011;4325;42.520;27.448;2022-07-18T06:14:57;13.87;;;2.53;;
8574;SDS011;4325;42.520;27.448;2022-07-18T06:17:24;12.83;;;2.53;;
8574;SDS011;4325;42.520;27.448;2022-07-18T06:19:52;13.50;;;2.43;;
8574;SDS011;4325;42.520;27.448;2022-07-18T06:22:19;13.93;;;2.83;;
8574;SDS011;4325;42.520;27.448;2022-07-18T06:24:46;11.83;;;2.90;;
8574;SDS011;4325;42.520;27.448;2022-07-18T06:27:13;11.10;;;2.97;;
8574;SDS011;4325;42.520;27.448;2022-07-18T06:29:40;6.50;;;2.30;;
8574;SDS011;4325;42.520;27.448;2022-07-18T06:32:08;11.73;;;2.83;;
8574;SDS011;4325;42.520;27.448;2022-07-18T06:34:35;8.70;;;2.63;;
8574;SDS011;4325;42.520;27.448;2022-07-18T06:37:02;12.70;;;3.17;;
8574;SDS011;4325;42.520;27.448;2022-07-18T06:39:28;10.13;;;3.00;;
8574;SDS011;4325;42.520;27.448;2022-07-18T06:41:55;6.83;;;2.40;;
8574;SDS011;4325;42.520;27.448;2022-07-18T06:44:22;10.97;;;2.53;;
8574;SDS011;4325;42.520;27.448;2022-07-18T06:46:49;15.70;;;2.70;;
8574;SDS011;4325;42.520;27.448;2022-07-18T06:49:18;21.70;;;2.87;;
8574;SDS011;4325;42.520;27.448;2022-07-18T06:51:45;7.07;;;2.60;;
8574;SDS011;4325;42.520;27.448;2022-07-18T06:54:12;13.33;;;2.70;;
8574;SDS011;4325;42.520;27.448;2022-07-18T06:56:39;15.20;;;2.97;;
8574;SDS011;4325;42.520;27.448;2022-07-18T06:59:06;8.60;;;2.43;;
8574;SDS011;4325;42.520;27.448;2022-07-18T07:01:33;14.37;;;2.83;;
8574;SDS011;4325;42.520;27.448;2022-07-18T07:04:00;9.53;;;2.40;;
8574;SDS011;4325;42.520;27.448;2022-07-18T07:06:28;10.13;;;2.47;;
8574;SDS011;4325;42.520;27.448;2022-07-18T07:08:55;11.87;;;2.30;;
8574;SDS011;4325;42.520;27.448;2022-07-18T07:11:21;7.37;;;2.40;;
8574;SDS011;4325;42.520;27.448;2022-07-18T07:13:49;8.90;;;2.40;;
8574;SDS011;4325;42.520;27.448;2022-07-18T07:16:16;10.63;;;2.63;;
8574;SDS011;4325;42.520;27.448;2022-07-18T07:18:42;7.60;;;2.83;;
8574;SDS011;4325;42.520;27.448;2022-07-18T07:21:09;11.00;;;2.73;;
8574;SDS011;4325;42.520;27.448;2022-07-18T07:23:37;8.43;;;2.97;;
8574;SDS011;4325;42.520;27.448;2022-07-18T07:26:05;8.10;;;2.90;;
8574;SDS011;4325;42.520;27.448;2022-07-18T07:28:32;17.57;;;3.10;;
8574;SDS011;4325;42.520;27.448;2022-07-18T07:30:59;15.53;;;2.70;;
8574;SDS011;4325;42.520;27.448;2022-07-18T07:33:26;7.43;;;2.60;;
8574;SDS011;4325;42.520;27.448;2022-07-18T07:35:53;6.47;;;2.30;;
8574;SDS011;4325;42.520;27.448;2022-07-18T07:38:20;5.63;;;2.40;;
8574;SDS011;4325;42.520;27.448;2022-07-18T07:40:54;9.00;;;2.13;;
8574;SDS011;4325;42.520;27.448;2022-07-18T07:43:22;10.00;;;2.80;;
8574;SDS011;4325;42.520;27.448;2022-07-18T07:45:50;7.67;;;2.37;;
8574;SDS011;4325;42.520;27.448;2022-07-18T07:48:18;8.27;;;2.20;;
8574;SDS011;4325;42.520;27.448;2022-07-18T07:50:44;7.90;;;2.30;;
8574;SDS011;4325;42.520;27.448;2022-07-18T07:53:11;11.33;;;3.47;;
8574;SDS011;4325;42.520;27.448;2022-07-18T07:55:38;9.67;;;2.60;;
8574;SDS011;4325;42.520;27.448;2022-07-18T07:58:08;7.57;;;1.97;;
8574;SDS011;4325;42.520;27.448;2022-07-18T08:00:35;8.57;;;2.27;;
8574;SDS011;4325;42.520;27.448;2022-07-18T08:03:02;7.07;;;1.97;;
8574;SDS011;4325;42.520;27.448;2022-07-18T08:05:32;6.20;;;2.03;;
8574;SDS011;4325;42.520;27.448;2022-07-18T08:08:00;11.53;;;2.50;;
8574;SDS011;4325;42.520;27.448;2022-07-18T08:10:28;6.37;;;2.20;;
8574;SDS011;4325;42.520;27.448;2022-07-18T08:12:55;6.43;;;2.20;;
8574;SDS011;4325;42.520;27.448;2022-07-18T08:15:23;18.67;;;2.87;;
8574;SDS011;4325;42.520;27.448;2022-07-18T08:17:51;9.30;;;2.20;;
8574;SDS011;4325;42.520;27.448;2022-07-18T08:20:18;4.77;;;1.93;;
8574;SDS011;4325;42.520;27.448;2022-07-18T08:22:52;7.17;;;2.67;;
8574;SDS011;4325;42.520;27.448;2022-07-18T08:25:23;8.87;;;1.90;;
8574;SDS011;4325;42.520;27.448;2022-07-18T08:27:51;6.90;;;2.13;;
8574;SDS011;4325;42.520;27.448;2022-07-18T08:30:18;3.90;;;1.80;;
8574;SDS011;4325;42.520;27.448;2022-07-18T08:32:47;5.73;;;1.97;;
8574;SDS011;4325;42.520;27.448;2022-07-18T08:35:14;3.43;;;2.10;;
8574;SDS011;4325;42.520;27.448;2022-07-18T08:37:41;5.67;;;2.33;;
8574;SDS011;4325;42.520;27.448;2022-07-18T08:40:09;8.70;;;2.53;;
8574;SDS011;4325;42.520;27.448;2022-07-18T08:42:36;3.30;;;1.73;;
8574;SDS011;4325;42.520;27.448;2022-07-18T08:45:03;3.20;;;1.90;;
8574;SDS011;4325;42.520;27.448;2022-07-18T08:47:31;6.73;;;1.67;;
8574;SDS011;4325;42.520;27.448;2022-07-18T08:50:00;3.27;;;1.80;;
8574;SDS011;4325;42.520;27.448;2022-07-18T08:52:29;3.27;;;1.80;;
8574;SDS011;4325;42.520;27.448;2022-07-18T08:54:56;7.57;;;1.73;;
8574;SDS011;4325;42.520;27.448;2022-07-18T08:57:23;5.93;;;1.97;;
8574;SDS011;4325;42.520;27.448;2022-07-18T08:59:50;4.60;;;1.50;;
8574;SDS011;4325;42.520;27.448;2022-07-18T09:02:17;4.13;;;1.83;;
8574;SDS011;4325;42.520;27.448;2022-07-18T09:04:44;4.63;;;1.50;;
8574;SDS011;4325;42.520;27.448;2022-07-18T09:07:23;7.00;;;1.70;;
8574;SDS011;4325;42.520;27.448;2022-07-18T09:09:51;5.60;;;1.80;;
8574;SDS011;4325;42.520;27.448;2022-07-18T09:12:19;4.83;;;2.00;;
8574;SDS011;4325;42.520;27.448;2022-07-18T09:14:46;6.13;;;2.00;;
8574;SDS011;4325;42.520;27.448;2022-07-18T09:17:14;3.70;;;1.70;;
8574;SDS011;4325;42.520;27.448;2022-07-18T09:19:43;5.07;;;1.90;;
8574;SDS011;4325;42.520;27.448;2022-07-18T09:22:24;4.73;;;1.87;;
8574;SDS011;4325;42.520;27.448;2022-07-18T09:24:57;3.97;;;1.50;;
8574;SDS011;4325;42.520;27.448;2022-07-18T09:27:29;5.05;;;3.35;;
8574;SDS011;4325;42.520;27.448;2022-07-18T09:30:10;7.55;;;2.60;;
8574;SDS011;4325;42.520;27.448;2022-07-18T09:32:43;3.90;;;1.55;;
8574;SDS011;4325;42.520;27.448;2022-07-18T09:35:11;5.65;;;3.15;;
8574;SDS011;4325;42.520;27.448;2022-07-18T09:37:40;3.70;;;1.90;;
8574;SDS011;4325;42.520;27.448;2022-07-18T09:40:19;5.45;;;2.22;;
8574;SDS011;4325;42.520;27.448;2022-07-18T09:42:48;2.03;;;1.60;;
8574;SDS011;4325;42.520;27.448;2022-07-18T09:45:21;7.43;;;3.42;;
8574;SDS011;4325;42.520;27.448;2022-07-18T09:47:49;3.80;;;2.13;;
8574;SDS011;4325;42.520;27.448;2022-07-18T09:50:22;6.97;;;2.33;;
8574;SDS011;4325;42.520;27.448;2022-07-18T09:53:09;9.15;;;2.13;;
8574;SDS011;4325;42.520;27.448;2022-07-18T09:55:46;2.05;;;1.42;;
8574;SDS011;4325;42.520;27.448;2022-07-18T09:58:18;4.57;;;1.70;;
8574;SDS011;4325;42.520;27.448;2022-07-18T10:00:46;3.90;;;1.50;;
8574;SDS011;4325;42.520;27.448;2022-07-18T10:03:13;2.13;;;1.50;;
8574;SDS011;4325;42.520;27.448;2022-07-18T10:05:43;2.63;;;1.33;;
8574;SDS011;4325;42.520;27.448;2022-07-18T10:08:15;3.33;;;1.30;;
8574;SDS011;4325;42.520;27.448;2022-07-18T10:10:43;6.45;;;1.45;;
8574;SDS011;4325;42.520;27.448;2022-07-18T10:13:12;6.47;;;1.20;;
8574;SDS011;4325;42.520;27.448;2022-07-18T10:15:42;7.57;;;1.70;;
8574;SDS011;4325;42.520;27.448;2022-07-18T10:18:10;5.63;;;1.50;;
8574;SDS011;4325;42.520;27.448;2022-07-18T10:20:44;6.97;;;2.35;;
8574;SDS011;4325;42.520;27.448;2022-07-18T10:23:17;4.40;;;1.40;;
8574;SDS011;4325;42.520;27.448;2022-07-18T10:28:34;3.63;;;1.30;;
8574;SDS011;4325;42.520;27.448;2022-07-18T10:31:11;10.05;;;1.50;;
8574;SDS011;4325;42.520;27.448;2022-07-18T10:33:41;16.95;;;2.55;;
8574;SDS011;4325;42.520;27.448;2022-07-18T10:36:12;3.03;;;1.30;;
8574;SDS011;4325;42.520;27.448;2022-07-18T10:41:34;2.35;;;1.40;;
8574;SDS011;4325;42.520;27.448;2022-07-18T10:44:42;4.95;;;1.50;;
8574;SDS011;4325;42.520;27.448;2022-07-18T10:47:10;3.95;;;1.40;;
8574;SDS011;4325;42.520;27.448;2022-07-18T10:55:27;5.00;;;1.77;;
8574;SDS011;4325;42.520;27.448;2022-07-18T10:58:20;8.20;;;2.22;;
8574;SDS011;4325;42.520;27.448;2022-07-18T11:00:49;6.20;;;2.78;;
8574;SDS011;4325;42.520;27.448;2022-07-18T11:03:23;3.20;;;1.45;;
8574;SDS011;4325;42.520;27.448;2022-07-18T11:05:53;4.47;;;1.40;;
8574;SDS011;4325;42.520;27.448;2022-07-18T11:08:21;2.93;;;1.47;;
8574;SDS011;4325;42.520;27.448;2022-07-18T11:11:11;6.05;;;1.73;;
8574;SDS011;4325;42.520;27.448;2022-07-18T11:13:41;2.03;;;1.30;;
8574;SDS011;4325;42.520;27.448;2022-07-18T11:16:14;13.03;;;1.50;;
8574;SDS011;4325;42.520;27.448;2022-07-18T11:21:46;10.03;;;1.80;;
8574;SDS011;4325;42.520;27.448;2022-07-18T11:24:22;7.80;;;1.70;;
8574;SDS011;4325;42.520;27.448;2022-07-18T11:26:50;2.17;;;1.48;;
8574;SDS011;4325;42.520;27.448;2022-07-18T11:29:17;8.63;;;1.58;;
8574;SDS011;4325;42.520;27.448;2022-07-18T11:31:46;3.58;;;1.30;;
8574;SDS011;4325;42.520;27.448;2022-07-18T11:34:14;3.95;;;1.67;;
8574;SDS011;4325;42.520;27.448;2022-07-18T11:36:42;4.10;;;1.67;;
8574;SDS011;4325;42.520;27.448;2022-07-18T11:39:10;2.83;;;1.40;;
8574;SDS011;4325;42.520;27.448;2022-07-18T11:41:37;3.42;;;1.45;;
8574;SDS011;4325;42.520;27.448;2022-07-18T11:44:11;5.57;;;1.50;;
8574;SDS011;4325;42.520;27.448;2022-07-18T11:46:43;4.70;;;1.52;;
8574;SDS011;4325;42.520;27.448;2022-07-18T11:49:10;2.87;;;1.30;;
8574;SDS011;4325;42.520;27.448;2022-07-18T11:51:39;4.63;;;1.67;;
8574;SDS011;4325;42.520;27.448;2022-07-18T11:54:07;4.97;;;1.40;;
8574;SDS011;4325;42.520;27.448;2022-07-18T11:56:44;4.55;;;1.48;;
8574;SDS011;4325;42.520;27.448;2022-07-18T11:59:14;5.30;;;1.60;;
8574;SDS011;4325;42.520;27.448;2022-07-18T12:01:41;6.93;;;1.52;;
8574;SDS011;4325;42.520;27.448;2022-07-18T12:04:14;2.38;;;1.63;;
8574;SDS011;4325;42.520;27.448;2022-07-18T12:06:44;5.73;;;1.77;;
8574;SDS011;4325;42.520;27.448;2022-07-18T12:09:11;4.73;;;1.67;;
8574;SDS011;4325;42.520;27.448;2022-07-18T12:11:38;3.97;;;2.07;;
8574;SDS011;4325;42.520;27.448;2022-07-18T12:14:14;2.33;;;1.50;;
8574;SDS011;4325;42.520;27.448;2022-07-18T12:16:42;4.87;;;1.83;;
8574;SDS011;4325;42.520;27.448;2022-07-18T12:19:10;6.23;;;1.90;;
8574;SDS011;4325;42.520;27.448;2022-07-18T12:21:42;6.57;;;1.90;;
8574;SDS011;4325;42.520;27.448;2022-07-18T12:24:22;8.87;;;1.70;;
8574;SDS011;4325;42.520;27.448;2022-07-18T12:27:13;5.67;;;1.80;;
8574;SDS011;4325;42.520;27.448;2022-07-18T12:29:57;7.93;;;1.57;;
8574;SDS011;4325;42.520;27.448;2022-07-18T12:32:28;2.37;;;1.67;;
8574;SDS011;4325;42.520;27.448;2022-07-18T12:34:57;3.43;;;1.60;;
8574;SDS011;4325;42.520;27.448;2022-07-18T12:37:26;4.63;;;1.67;;
8574;SDS011;4325;42.520;27.448;2022-07-18T12:39:58;2.47;;;1.40;;
8574;SDS011;4325;42.520;27.448;2022-07-18T12:42:29;3.47;;;1.50;;
8574;SDS011;4325;42.520;27.448;2022-07-18T12:44:59;4.33;;;2.30;;
8574;SDS011;4325;42.520;27.448;2022-07-18T12:47:26;4.30;;;1.83;;
8574;SDS011;4325;42.520;27.448;2022-07-18T12:49:53;3.23;;;1.50;;
8574;SDS011;4325;42.520;27.448;2022-07-18T12:52:20;2.93;;;1.40;;
8574;SDS011;4325;42.520;27.448;2022-07-18T12:54:47;6.03;;;1.37;;
8574;SDS011;4325;42.520;27.448;2022-07-18T12:57:14;2.93;;;1.60;;
8574;SDS011;4325;42.520;27.448;2022-07-18T12:59:41;4.10;;;1.70;;
8574;SDS011;4325;42.520;27.448;2022-07-18T13:02:10;4.90;;;1.80;;
8574;SDS011;4325;42.520;27.448;2022-07-18T13:04:37;3.13;;;1.67;;
8574;SDS011;4325;42.520;27.448;2022-07-18T13:07:04;3.77;;;1.60;;
8574;SDS011;4325;42.520;27.448;2022-07-18T13:09:32;1.93;;;1.50;;
8574;SDS011;4325;42.520;27.448;2022-07-18T13:11:59;3.47;;;1.60;;
8574;SDS011;4325;42.520;27.448;2022-07-18T13:14:26;1.50;;;1.40;;
8574;SDS011;4325;42.520;27.448;2022-07-18T13:16:53;4.20;;;1.30;;
8574;SDS011;4325;42.520;27.448;2022-07-18T13:19:22;5.83;;;1.27;;
8574;SDS011;4325;42.520;27.448;2022-07-18T13:21:49;3.13;;;1.33;;
8574;SDS011;4325;42.520;27.448;2022-07-18T13:24:15;3.43;;;1.60;;
8574;SDS011;4325;42.520;27.448;2022-07-18T13:26:42;2.23;;;1.50;;
8574;SDS011;4325;42.520;27.448;2022-07-18T13:29:09;1.40;;;1.20;;
8574;SDS011;4325;42.520;27.448;2022-07-18T13:31:36;3.60;;;1.70;;
8574;SDS011;4325;42.520;27.448;2022-07-18T13:34:03;5.00;;;1.80;;
8574;SDS011;4325;42.520;27.448;2022-07-18T13:36:31;3.37;;;1.70;;
8574;SDS011;4325;42.520;27.448;2022-07-18T13:38:58;3.53;;;1.50;;
8574;SDS011;4325;42.520;27.448;2022-07-18T13:41:27;7.47;;;1.63;;
8574;SDS011;4325;42.520;27.448;2022-07-18T13:43:54;6.23;;;1.80;;
8574;SDS011;4325;42.520;27.448;2022-07-18T13:46:22;6.93;;;2.20;;
8574;SDS011;4325;42.520;27.448;2022-07-18T13:48:48;3.60;;;1.90;;
8574;SDS011;4325;42.520;27.448;2022-07-18T13:51:16;3.63;;;1.90;;
8574;SDS011;4325;42.520;27.448;2022-07-18T13:53:44;2.57;;;1.60;;
8574;SDS011;4325;42.520;27.448;2022-07-18T13:56:11;4.30;;;1.80;;
8574;SDS011;4325;42.520;27.448;2022-07-18T13:58:38;4.90;;;1.87;;
8574;SDS011;4325;42.520;27.448;2022-07-18T14:01:05;1.47;;;1.37;;
8574;SDS011;4325;42.520;27.448;2022-07-18T14:03:33;1.53;;;1.43;;
8574;SDS011;4325;42.520;27.448;2022-07-18T14:06:00;4.70;;;2.53;;
8574;SDS011;4325;42.520;27.448;2022-07-18T14:08:27;3.40;;;2.80;;
8574;SDS011;4325;42.520;27.448;2022-07-18T14:10:55;3.03;;;1.70;;
8574;SDS011;4325;42.520;27.448;2022-07-18T14:13:22;4.80;;;1.53;;
8574;SDS011;4325;42.520;27.448;2022-07-18T14:15:49;3.73;;;1.30;;
8574;SDS011;4325;42.520;27.448;2022-07-18T14:18:16;3.03;;;1.73;;
8574;SDS011;4325;42.520;27.448;2022-07-18T14:20:43;1.97;;;1.40;;
8574;SDS011;4325;42.520;27.448;2022-07-18T14:23:09;2.87;;;1.50;;
8574;SDS011;4325;42.520;27.448;2022-07-18T14:25:36;1.97;;;1.63;;
8574;SDS011;4325;42.520;27.448;2022-07-18T14:28:05;2.97;;;1.50;;
8574;SDS011;4325;42.520;27.448;2022-07-18T14:30:32;1.57;;;1.20;;
8574;SDS011;4325;42.520;27.448;2022-07-18T14:32:59;5.60;;;1.70;;
8574;SDS011;4325;42.520;27.448;2022-07-18T14:35:26;4.93;;;1.80;;
8574;SDS011;4325;42.520;27.448;2022-07-18T14:37:53;4.00;;;1.70;;
8574;SDS011;4325;42.520;27.448;2022-07-18T14:40:20;4.60;;;1.20;;
8574;SDS011;4325;42.520;27.448;2022-07-18T14:42:47;3.87;;;1.33;;
8574;SDS011;4325;42.520;27.448;2022-07-18T14:45:17;2.90;;;1.50;;
8574;SDS011;4325;42.520;27.448;2022-07-18T14:47:44;2.90;;;1.60;;
8574;SDS011;4325;42.520;27.448;2022-07-18T14:50:11;3.00;;;1.33;;
8574;SDS011;4325;42.520;27.448;2022-07-18T14:52:38;2.87;;;1.60;;
8574;SDS011;4325;42.520;27.448;2022-07-18T14:55:05;4.17;;;1.50;;
8574;SDS011;4325;42.520;27.448;2022-07-18T14:57:33;6.27;;;1.90;;
8574;SDS011;4325;42.520;27.448;2022-07-18T15:00:00;2.33;;;1.20;;
8574;SDS011;4325;42.520;27.448;2022-07-18T15:02:28;2.97;;;1.60;;
8574;SDS011;4325;42.520;27.448;2022-07-18T15:04:55;2.50;;;1.40;;
8574;SDS011;4325;42.520;27.448;2022-07-18T15:07:22;4.40;;;1.80;;
8574;SDS011;4325;42.520;27.448;2022-07-18T15:09:49;2.90;;;1.80;;
8574;SDS011;4325;42.520;27.448;2022-07-18T15:12:16;8.23;;;2.03;;
8574;SDS011;4325;42.520;27.448;2022-07-18T15:14:43;2.90;;;1.60;;
8574;SDS011;4325;42.520;27.448;2022-07-18T15:17:09;3.70;;;1.37;;
8574;SDS011;4325;42.520;27.448;2022-07-18T15:19:38;5.43;;;1.80;;